Time;durP1;ratioP1;P1;durP2;ratioP2;P2;SDS_P1;SDS_P2;PMS_P1;PMS_P2;Temp;Humidity;BMP_temperature;BMP_pressure;BME280_temperature;BME280_humidity;BME280_pressure;Samples;Min_cycle;Max_cycle;Signal;HPM_P1;HPM_P2
2022/04/06 00:00:57;;;;;;;11.53;4.77;;;;;;;6.45;88.26;99003.84;3584920;78;98414;-82
2022/04/06 00:05:58;;;;;;;11.30;4.67;;;;;;;6.42;87.71;99005.95;3673127;78;98454;-84
2022/04/06 00:11:00;;;;;;;10.30;5.15;;;;;;;6.37;88.06;99005.52;3662119;78;98481;-84
2022/04/06 00:16:01;;;;;;;8.80;4.50;;;;;;;6.34;87.84;99007.07;3659631;79;98627;-84
2022/04/06 00:21:03;;;;;;;8.78;3.90;;;;;;;6.33;87.56;98995.95;3685421;78;98361;-84
2022/04/06 00:26:05;;;;;;;11.38;4.78;;;;;;;6.31;87.62;98998.86;3661512;78;98530;-83
2022/04/06 00:31:06;;;;;;;9.95;4.65;;;;;;;6.26;87.58;99008.22;3680990;78;98541;-84
2022/04/06 00:36:07;;;;;;;9.60;3.83;;;;;;;6.24;88.05;99012.49;3678891;78;98444;-84
2022/04/06 00:41:08;;;;;;;10.25;4.17;;;;;;;6.20;87.85;99001.55;3694227;79;98514;-84
2022/04/06 00:46:09;;;;;;;10.70;4.57;;;;;;;6.20;87.53;99005.65;3665654;79;98569;-84
2022/04/06 00:51:10;;;;;;;9.73;4.10;;;;;;;6.16;87.83;99007.56;3671659;79;98494;-84
2022/04/06 00:56:12;;;;;;;9.50;4.47;;;;;;;6.15;88.00;99001.12;3661703;78;98424;-85
2022/04/06 01:01:12;;;;;;;8.57;4.23;;;;;;;6.11;87.74;98997.00;3686008;79;98284;-84
2022/04/06 01:06:13;;;;;;;10.98;5.33;;;;;;;6.12;87.78;99003.27;3646654;79;98239;-85
2022/04/06 01:11:14;;;;;;;11.90;4.70;;;;;;;6.10;88.26;98990.55;3696123;78;98665;-85
2022/04/06 01:16:15;;;;;;;11.73;5.13;;;;;;;6.05;88.13;98988.20;3658743;79;98484;-84
2022/04/06 01:21:19;;;;;;;9.87;4.63;;;;;;;6.02;88.28;98994.41;3678225;79;98122;-84
2022/04/06 01:26:20;;;;;;;9.45;4.62;;;;;;;6.01;88.66;98986.03;3657499;79;98316;-85
2022/04/06 01:31:21;;;;;;;12.18;5.28;;;;;;;5.99;88.52;98976.05;3667266;79;98266;-85
2022/04/06 01:36:22;;;;;;;10.93;5.30;;;;;;;6.00;88.79;98983.87;3656505;79;98590;-85
2022/04/06 01:41:31;;;;;;;11.37;5.37;;;;;;;5.99;88.62;98978.78;3669558;79;98436;-85
2022/04/06 01:46:33;;;;;;;10.32;4.87;;;;;;;5.95;89.08;98978.77;3658791;79;98577;-86
2022/04/06 01:56:59;;;;;;;9.97;4.83;;;;;;;5.88;89.57;98982.03;3646983;78;98469;-86
2022/04/06 02:02:00;;;;;;;12.77;5.93;;;;;;;5.88;89.59;98987.48;3672549;79;101043;-85
2022/04/06 02:07:01;;;;;;;13.93;4.60;;;;;;;5.89;89.57;98990.45;3636900;79;98741;-86
2022/04/06 02:12:04;;;;;;;12.20;6.00;;;;;;;5.91;89.58;98990.84;3654700;78;98701;-86
2022/04/06 02:17:06;;;;;;;12.55;6.65;;;;;;;5.89;89.81;98986.35;3653741;79;98562;-86
2022/04/06 02:22:09;;;;;;;10.85;5.45;;;;;;;5.89;90.09;98992.58;3630584;79;98511;-85
2022/04/06 02:27:10;;;;;;;10.70;5.65;;;;;;;5.87;90.15;98994.12;3576682;80;98483;-86
2022/04/06 02:32:11;;;;;;;12.18;5.75;;;;;;;5.85;90.09;98992.36;3493287;80;98555;-85
2022/04/06 02:37:12;;;;;;;10.05;5.03;;;;;;;5.84;90.16;98989.44;3638738;79;98641;-85
2022/04/06 02:42:13;;;;;;;10.00;5.17;;;;;;;5.83;89.98;98990.00;3656247;79;98437;-85
2022/04/06 02:47:14;;;;;;;9.97;5.10;;;;;;;5.81;90.26;98988.81;3647201;79;98842;-84
2022/04/06 02:52:14;;;;;;;10.10;5.23;;;;;;;5.79;90.99;98982.33;3657664;79;98531;-85
2022/04/06 02:57:16;;;;;;;8.67;4.33;;;;;;;5.76;90.60;98987.20;3664381;78;98471;-85
2022/04/06 03:02:16;;;;;;;10.58;4.30;;;;;;;5.72;90.56;98986.39;3658018;79;98271;-86
2022/04/06 03:07:19;;;;;;;8.40;4.13;;;;;;;5.69;90.89;98983.07;3659616;79;98281;-86
2022/04/06 03:12:20;;;;;;;9.30;4.70;;;;;;;5.66;90.75;98982.45;3666754;79;98476;-86
2022/04/06 03:17:21;;;;;;;9.07;4.23;;;;;;;5.69;90.97;98980.34;3651052;79;98362;-86
2022/04/06 03:22:22;;;;;;;8.43;4.30;;;;;;;5.66;91.32;98983.02;3644228;79;98238;-86
2022/04/06 03:27:23;;;;;;;12.65;6.00;;;;;;;5.65;91.41;98974.06;3646662;79;98503;-87
2022/04/06 03:32:24;;;;;;;15.10;8.43;;;;;;;5.64;91.47;98979.33;3654811;79;98544;-88
2022/04/06 03:37:24;;;;;;;12.87;6.90;;;;;;;5.63;92.24;98980.46;3634589;79;98329;-89
2022/04/06 03:42:25;;;;;;;11.15;5.00;;;;;;;5.57;92.97;98968.34;3635726;79;98789;-89
2022/04/06 03:47:32;;;;;;;13.90;6.07;;;;;;;5.52;93.24;98962.47;3640192;79;98485;-89
2022/04/06 03:52:33;;;;;;;12.43;6.00;;;;;;;5.43;93.61;98960.63;3651506;78;98530;-89
2022/04/06 03:57:37;;;;;;;13.50;6.85;;;;;;;5.46;93.72;98957.92;3652064;79;98476;-90
2022/04/06 04:02:38;;;;;;;16.75;7.62;;;;;;;5.48;93.50;98953.46;3615936;79;98564;-89
2022/04/06 04:07:40;;;;;;;11.10;6.17;;;;;;;5.45;94.41;98952.27;3636933;79;98432;-90
2022/04/06 04:12:41;;;;;;;9.77;5.10;;;;;;;5.37;94.97;98956.13;3647567;79;98601;-90
2022/04/06 04:17:42;;;;;;;11.90;5.47;;;;;;;5.27;95.64;98953.29;3610678;79;98189;-84
2022/04/06 04:22:42;;;;;;;11.53;5.67;;;;;;;5.26;95.88;98953.09;3645636;79;98586;-86
2022/04/06 04:27:43;;;;;;;13.20;5.83;;;;;;;5.31;95.48;98939.91;3649838;79;98518;-84
2022/04/06 04:32:44;;;;;;;17.55;8.55;;;;;;;5.33;95.51;98945.75;3644331;79;98469;-91
2022/04/06 04:37:45;;;;;;;15.20;7.73;;;;;;;5.39;95.24;98951.63;3608199;79;98548;-91
2022/04/06 04:42:46;;;;;;;17.73;8.15;;;;;;;5.41;95.74;98953.41;3638531;79;98643;-91
2022/04/06 04:47:47;;;;;;;15.80;7.43;;;;;;;5.35;96.21;98954.93;3616713;79;98524;-92
2022/04/06 04:52:48;;;;;;;16.37;8.87;;;;;;;5.35;96.42;98955.70;3620053;79;106135;-91
2022/04/06 04:57:49;;;;;;;15.63;8.63;;;;;;;5.33;96.58;98953.14;3634539;79;98643;-91
2022/04/06 05:02:50;;;;;;;13.70;6.80;;;;;;;5.38;97.08;98958.25;3620446;79;98604;-90
2022/04/06 05:07:51;;;;;;;11.40;6.63;;;;;;;5.40;96.56;98966.26;3555763;79;99015;-90
2022/04/06 05:12:54;;;;;;;16.00;8.13;;;;;;;5.44;96.84;98962.19;3554132;78;98651;-90
2022/04/06 05:17:55;;;;;;;14.63;8.15;;;;;;;5.41;97.52;98956.91;3539359;79;98696;-90
2022/04/06 05:22:56;;;;;;;14.47;7.22;;;;;;;5.41;97.58;98958.88;3558469;80;98634;-90
2022/04/06 05:27:57;;;;;;;14.23;7.27;;;;;;;5.49;97.20;98957.75;3550089;80;107642;-89
2022/04/06 05:33:00;;;;;;;16.40;8.63;;;;;;;5.50;97.41;98964.77;3550635;80;99101;-90
2022/04/06 05:38:01;;;;;;;17.53;9.80;;;;;;;5.45;97.94;98960.45;3547536;80;98578;-89
2022/04/06 05:43:03;;;;;;;19.75;11.73;;;;;;;5.50;97.82;98958.75;3556295;80;98492;-90
2022/04/06 05:48:06;;;;;;;24.07;14.55;;;;;;;5.54;98.19;98953.31;3542399;79;98834;-88
2022/04/06 05:53:07;;;;;;;26.13;14.20;;;;;;;5.51;98.75;98953.48;3542291;80;98982;-86
2022/04/06 05:58:08;;;;;;;31.60;18.90;;;;;;;5.62;98.68;98954.94;3536248;81;98816;-86
2022/04/06 06:03:09;;;;;;;27.33;17.23;;;;;;;5.70;99.03;98962.00;3567498;79;99000;-86
2022/04/06 06:08:09;;;;;;;28.12;15.18;;;;;;;5.76;99.45;98955.81;3630372;79;98934;-85
2022/04/06 06:13:10;;;;;;;26.68;15.70;;;;;;;5.84;99.35;98957.44;3649696;79;99267;-84
2022/04/06 06:18:13;;;;;;;29.95;17.00;;;;;;;5.94;99.69;98964.92;3622541;79;98821;-85
2022/04/06 06:23:14;;;;;;;34.00;17.65;;;;;;;6.07;100.00;98952.52;3637901;79;98947;-84
2022/04/06 06:28:15;;;;;;;33.45;18.35;;;;;;;6.19;100.00;98953.55;3621350;79;99468;-84
2022/04/06 06:33:16;;;;;;;32.27;19.13;;;;;;;6.34;100.00;98955.16;3627236;78;99076;-83
2022/04/06 06:38:18;;;;;;;31.73;18.17;;;;;;;6.52;100.00;98960.70;3620698;79;99141;-85
2022/04/06 06:43:18;;;;;;;31.87;18.87;;;;;;;6.70;100.00;98958.23;3635457;79;98932;-85
2022/04/06 06:48:19;;;;;;;33.57;20.13;;;;;;;6.94;100.00;98960.83;3619529;79;99110;-86
2022/04/06 06:53:20;;;;;;;29.63;18.13;;;;;;;7.18;100.00;98960.86;3629813;79;99178;-84
2022/04/06 06:58:21;;;;;;;27.58;15.86;;;;;;;7.44;100.00;98962.44;3625164;78;99059;-85
2022/04/06 07:03:22;;;;;;;26.90;15.93;;;;;;;7.69;100.00;98957.13;3633394;79;98953;-85
2022/04/06 07:08:23;;;;;;;25.88;14.75;;;;;;;8.00;100.00;98960.42;3596567;78;99290;-85
2022/04/06 07:13:25;;;;;;;21.70;12.53;;;;;;;8.24;100.00;98962.33;3628349;79;98833;-83
2022/04/06 07:18:26;;;;;;;22.30;13.43;;;;;;;8.45;100.00;98962.86;3618600;79;99072;-86
2022/04/06 07:23:27;;;;;;;23.50;14.40;;;;;;;8.60;100.00;98958.86;3618521;78;99103;-87
2022/04/06 07:28:28;;;;;;;21.10;12.87;;;;;;;8.78;100.00;98969.94;3615110;79;98956;-84
2022/04/06 07:33:29;;;;;;;17.87;11.53;;;;;;;8.93;100.00;98966.52;3607522;79;99062;-80
2022/04/06 07:38:30;;;;;;;19.80;11.75;;;;;;;9.05;100.00;98963.33;3637409;79;99237;-86
2022/04/06 07:43:31;;;;;;;17.17;11.17;;;;;;;9.19;100.00;98965.38;3612269;79;99170;-85
2022/04/06 07:48:34;;;;;;;20.00;11.30;;;;;;;9.38;100.00;98968.20;3595366;79;99193;-86
2022/04/06 07:53:35;;;;;;;18.23;10.23;;;;;;;9.56;100.00;98964.70;3620022;79;99188;-84
2022/04/06 07:58:36;;;;;;;15.98;9.93;;;;;;;9.74;100.00;98977.11;3625180;79;98894;-85
2022/04/06 08:03:37;;;;;;;16.93;9.47;;;;;;;9.89;100.00;98975.00;3620986;79;98955;-87
2022/04/06 08:08:38;;;;;;;15.28;9.00;;;;;;;9.96;100.00;98975.72;3646133;79;98879;-85
2022/04/06 08:13:39;;;;;;;15.50;8.83;;;;;;;10.00;100.00;98983.34;3667792;78;98965;-87
2022/04/06 08:18:43;;;;;;;14.13;7.70;;;;;;;10.02;100.00;98991.95;3677498;78;99153;-85
2022/04/06 08:23:44;;;;;;;13.00;7.80;;;;;;;10.04;100.00;99008.07;3665234;78;99171;-83
2022/04/06 08:28:46;;;;;;;14.07;8.03;;;;;;;10.05;100.00;99002.75;3674865;78;98970;-86
2022/04/06 08:33:47;;;;;;;12.47;7.83;;;;;;;10.09;100.00;99003.52;3674151;78;99520;-85
2022/04/06 08:38:48;;;;;;;14.67;8.13;;;;;;;10.18;100.00;99007.33;3666126;79;99365;-85
2022/04/06 08:43:49;;;;;;;13.57;8.03;;;;;;;10.28;100.00;99004.28;3629403;79;99171;-86
2022/04/06 08:48:52;;;;;;;13.50;7.40;;;;;;;10.42;100.00;99003.53;3645527;79;99391;-85
2022/04/06 08:53:53;;;;;;;12.53;6.53;;;;;;;10.60;100.00;99003.33;3642882;78;99221;-83
2022/04/06 08:58:54;;;;;;;13.23;7.00;;;;;;;10.79;99.51;99002.11;3653543;79;99311;-86
2022/04/06 09:03:55;;;;;;;13.45;6.90;;;;;;;10.92;98.77;99011.98;3657195;79;98981;-85
2022/04/06 09:08:56;;;;;;;14.87;7.62;;;;;;;11.07;98.27;99018.86;3618311;79;99174;-85
2022/04/06 09:14:03;;;;;;;13.07;6.93;;;;;;;11.13;96.76;98998.69;3620446;79;98981;-83
2022/04/06 09:19:12;;;;;;;13.67;7.43;;;;;;;11.14;95.49;98999.48;3620393;78;99147;-86
2022/04/06 09:24:19;;;;;;;13.13;7.30;;;;;;;11.14;95.35;98998.90;3623115;79;99128;-85
2022/04/06 09:29:21;;;;;;;15.23;8.03;;;;;;;11.25;95.87;99002.28;3635719;79;99122;-83
2022/04/06 09:34:25;;;;;;;16.50;8.43;;;;;;;11.57;95.83;98998.45;3638373;79;99014;-82
2022/04/06 09:39:46;;;;;;;16.35;8.63;;;;;;;11.82;94.33;98993.33;3616202;79;99035;-83
2022/04/06 09:50:26;;;;;;;16.07;9.73;;;;;;;12.21;91.65;98987.90;3635916;79;99007;-81
2022/04/06 09:55:27;;;;;;;17.90;10.28;;;;;;;12.33;90.52;99005.82;3617915;79;98929;-84
2022/04/06 10:00:30;;;;;;;20.97;10.23;;;;;;;12.33;89.08;98994.78;3637656;79;99157;-81
2022/04/06 10:05:34;;;;;;;16.70;10.15;;;;;;;12.41;89.37;98993.44;3637614;79;99132;-81
2022/04/06 10:10:38;;;;;;;17.25;10.70;;;;;;;12.77;89.46;98982.67;3651213;79;99074;-80
2022/04/06 10:15:42;;;;;;;18.67;11.73;;;;;;;13.05;87.78;98992.34;3655372;79;99219;-80
2022/04/06 10:21:03;;;;;;;18.87;11.75;;;;;;;13.10;85.29;99000.13;3656469;78;99334;-79
2022/04/06 10:26:21;;;;;;;19.05;11.08;;;;;;;12.96;85.23;98992.93;3589810;79;98942;-80
2022/04/06 10:31:28;;;;;;;17.65;10.78;;;;;;;12.97;85.31;98984.81;3655940;79;98986;-80
2022/04/06 10:36:32;;;;;;;20.55;10.75;;;;;;;12.96;83.46;98975.56;3655412;78;99248;-79
2022/04/06 10:41:35;;;;;;;16.50;9.93;;;;;;;12.96;82.68;98971.42;3635427;79;99174;-80
2022/04/06 10:46:42;;;;;;;17.55;10.98;;;;;;;13.02;83.49;98967.73;3647060;79;99200;-79
2022/04/06 10:51:56;;;;;;;20.12;10.53;;;;;;;13.25;82.11;98956.55;3628116;79;98973;-79
2022/04/06 10:56:54;;;;;;;20.00;10.77;;;;;;;13.36;81.28;98963.23;3621109;79;98997;-81
2022/04/06 11:02:19;;;;;;;20.65;10.95;;;;;;;13.33;79.92;98962.11;3635760;79;99144;-82
2022/04/06 11:13:08;;;;;;;16.50;9.58;;;;;;;13.57;79.63;98957.95;3602181;79;99064;-79
2022/04/06 11:18:46;;;;;;;15.20;8.43;;;;;;;13.68;79.47;98955.71;3587941;79;98986;-81
2022/04/06 11:23:50;;;;;;;19.35;8.40;;;;;;;13.74;77.82;98961.52;3607506;79;98644;-79
2022/04/06 11:29:01;;;;;;;14.90;7.87;;;;;;;13.90;78.24;98967.03;3617124;79;98919;-78
2022/04/06 11:34:02;;;;;;;17.12;8.15;;;;;;;14.03;75.86;98962.33;3559079;80;98894;-80
2022/04/06 11:39:06;;;;;;;15.80;7.77;;;;;;;13.95;74.61;98967.27;3598634;79;98867;-80
2022/04/06 11:44:07;;;;;;;13.83;6.83;;;;;;;13.83;74.67;98956.92;3596386;79;98933;-79
2022/04/06 11:49:10;;;;;;;16.07;7.08;;;;;;;13.74;74.69;98961.52;3567979;80;99188;-79
2022/04/06 11:54:13;;;;;;;17.65;8.68;;;;;;;13.72;74.24;98959.17;3592600;78;98973;-79
2022/04/06 11:59:16;;;;;;;17.23;7.95;;;;;;;13.71;74.24;98954.86;3629527;79;99138;-79
2022/04/06 12:04:24;;;;;;;15.05;7.60;;;;;;;13.71;74.29;98954.06;3622907;79;99007;-80
2022/04/06 12:09:25;;;;;;;15.70;7.00;;;;;;;13.67;74.06;98948.63;3612698;79;99099;-80
2022/04/06 12:14:26;;;;;;;15.00;7.30;;;;;;;13.66;74.27;98953.20;3610191;79;99119;-79
2022/04/06 12:19:33;;;;;;;13.73;7.20;;;;;;;13.68;73.48;98949.42;3572264;79;98751;-79
2022/04/06 12:24:43;;;;;;;11.65;6.60;;;;;;;13.65;72.36;98946.92;3624002;79;99133;-78
2022/04/06 12:30:03;;;;;;;16.73;7.05;;;;;;;13.57;71.32;98946.91;3590359;79;99203;-79
2022/04/06 12:35:20;;;;;;;13.85;7.30;;;;;;;13.44;71.24;98936.97;3603643;79;98950;-79
2022/04/06 12:40:23;;;;;;;;;;;;;;;13.40;71.33;98937.69;3610464;79;99341;-80
2022/04/06 12:45:25;;;;;;;13.45;7.08;;;;;;;13.38;71.07;98939.49;3589395;80;85218;-78
2022/04/06 12:50:34;;;;;;;12.65;7.42;;;;;;;13.28;71.36;98937.75;3575475;80;99463;-80
2022/04/06 12:55:35;;;;;;;16.47;7.50;;;;;;;13.19;71.30;98927.89;3600259;79;98806;-79
2022/04/06 13:00:40;;;;;;;16.20;6.60;;;;;;;13.09;71.26;98934.43;3617493;79;98502;-80
2022/04/06 13:05:43;;;;;;;10.23;6.12;;;;;;;12.99;71.52;98931.92;3606781;79;99203;-79
2022/04/06 13:10:46;;;;;;;12.47;6.65;;;;;;;12.91;71.48;98930.52;3621578;79;99691;-78
2022/04/06 13:15:48;;;;;;;11.35;6.55;;;;;;;12.83;71.37;98931.27;3594040;79;98852;-78
2022/04/06 13:20:49;;;;;;;13.53;7.00;;;;;;;12.73;71.42;98929.51;3632253;79;99401;-81
2022/04/06 13:25:50;;;;;;;15.33;6.43;;;;;;;12.68;71.81;98926.45;3504075;81;99148;-77
2022/04/06 13:30:51;;;;;;;17.30;7.43;;;;;;;12.62;71.61;98932.30;3550541;79;98686;-78
2022/04/06 13:35:54;;;;;;;13.60;7.15;;;;;;;12.57;71.92;98926.70;3538631;81;99065;-78
2022/04/06 13:40:58;;;;;;;14.28;6.25;;;;;;;12.57;72.24;98925.31;3534389;80;98644;-78
2022/04/06 13:45:59;;;;;;;15.50;7.17;;;;;;;12.60;71.58;98920.92;3531851;81;98903;-79
2022/04/06 13:51:05;;;;;;;11.53;6.03;;;;;;;12.60;71.92;98922.31;3558855;81;98819;-78
2022/04/06 13:56:06;;;;;;;14.05;6.92;;;;;;;12.66;70.91;98906.80;3543837;81;98837;-79
2022/04/06 14:01:08;;;;;;;14.98;5.92;;;;;;;12.77;70.92;98905.97;3528645;81;98572;-79
2022/04/06 14:06:11;;;;;;;13.08;6.33;;;;;;;12.87;71.07;98900.81;3543869;80;98895;-78
2022/04/06 14:11:16;;;;;;;16.02;6.67;;;;;;;12.95;70.91;98896.67;3539019;81;99012;-79
2022/04/06 14:16:18;;;;;;;13.48;6.22;;;;;;;12.95;70.04;98891.94;3511696;81;98916;-79
2022/04/06 14:21:20;;;;;;;15.53;6.40;;;;;;;12.95;70.08;98878.72;3524925;81;98962;-80
2022/04/06 14:26:22;;;;;;;12.27;5.73;;;;;;;12.95;69.01;98869.06;3540441;80;98872;-79
2022/04/06 14:31:25;;;;;;;14.63;6.53;;;;;;;12.99;69.47;98872.55;3500259;81;98833;-79
2022/04/06 14:36:28;;;;;;;11.80;5.90;;;;;;;13.01;69.38;98861.25;3570099;80;98830;-79
2022/04/06 14:41:29;;;;;;;12.70;5.75;;;;;;;13.07;69.15;98863.67;3577671;81;98455;-79
2022/04/06 14:46:31;;;;;;;12.37;5.97;;;;;;;13.14;69.68;98862.11;3578933;81;98575;-79
2022/04/06 14:51:32;;;;;;;12.83;5.67;;;;;;;13.18;69.59;98856.49;3564350;81;98763;-79
2022/04/06 14:56:34;;;;;;;13.77;5.53;;;;;;;13.23;67.86;98862.88;3551010;80;98428;-78
2022/04/06 15:01:35;;;;;;;12.60;6.20;;;;;;;13.25;67.24;98857.10;3549560;81;98268;-80
2022/04/06 15:06:36;;;;;;;14.25;6.30;;;;;;;13.32;67.36;98848.66;3554296;81;98655;-80
2022/04/06 15:11:38;;;;;;;12.97;6.67;;;;;;;13.36;67.20;98850.70;3555414;81;98807;-80
2022/04/06 15:16:39;;;;;;;12.83;6.40;;;;;;;13.40;66.98;98853.41;3555067;81;99179;-78
2022/04/06 15:21:41;;;;;;;14.87;6.83;;;;;;;13.38;66.12;98836.46;3516988;81;98454;-79
2022/04/06 15:26:42;;;;;;;14.45;7.08;;;;;;;13.39;65.36;98841.56;3531636;81;98714;-78
2022/04/06 15:31:44;;;;;;;16.63;6.90;;;;;;;13.34;66.25;98828.27;3506384;82;98846;-78
2022/04/06 15:42:05;;;;;;;12.28;6.83;;;;;;;13.43;65.61;98840.88;3577397;81;98767;-81
2022/04/06 15:47:07;;;;;;;12.13;6.00;;;;;;;13.43;65.55;98842.25;3557045;80;98937;-80
2022/04/06 15:52:09;;;;;;;12.88;6.50;;;;;;;13.44;65.28;98841.05;3513458;83;98737;-79
2022/04/06 15:57:13;;;;;;;11.80;6.30;;;;;;;13.42;65.30;98846.20;3528043;81;98742;-80
2022/04/06 16:02:15;;;;;;;13.60;6.15;;;;;;;13.42;65.05;98843.44;3578054;80;98915;-79
2022/04/06 16:07:16;;;;;;;17.42;8.05;;;;;;;13.35;64.54;98839.48;3560876;80;98763;-78
2022/04/06 16:12:18;;;;;;;13.25;5.85;;;;;;;13.29;65.00;98828.79;3556982;80;98806;-80
2022/04/06 16:17:19;;;;;;;11.33;6.37;;;;;;;13.26;65.04;98826.13;3655179;79;98434;-79
2022/04/06 16:22:21;;;;;;;13.18;6.30;;;;;;;13.23;65.08;98816.71;3641368;79;98565;-80
2022/04/06 16:27:23;;;;;;;13.65;5.62;;;;;;;13.16;65.22;98820.25;3624081;79;98852;-80
2022/04/06 16:32:24;;;;;;;15.90;6.15;;;;;;;13.09;65.50;98819.05;3630648;79;98911;-80
2022/04/06 16:37:27;;;;;;;12.23;6.03;;;;;;;13.05;65.97;98818.36;3629878;79;98774;-79
2022/04/06 16:42:29;;;;;;;15.00;7.28;;;;;;;13.00;66.13;98815.52;3654591;79;98800;-79
2022/04/06 16:47:31;;;;;;;17.73;7.15;;;;;;;12.94;66.30;98815.84;3640900;79;98908;-79
2022/04/06 16:52:41;;;;;;;13.38;6.65;;;;;;;12.90;66.47;98809.62;3642929;79;98738;-79
2022/04/06 16:57:45;;;;;;;14.03;7.53;;;;;;;12.84;66.69;98805.03;3650615;79;98563;-79
2022/04/06 17:02:50;;;;;;;15.53;6.70;;;;;;;12.76;66.93;98798.14;3652606;79;98474;-77
2022/04/06 17:07:52;;;;;;;18.67;9.50;;;;;;;12.67;67.27;98809.78;3640026;79;98785;-80
2022/04/06 17:12:53;;;;;;;14.85;8.20;;;;;;;12.39;67.70;98766.28;3610443;79;98736;-80
2022/04/06 17:18:00;;;;;;;22.93;10.87;;;;;;;12.53;67.89;98801.81;3635999;79;99111;-80
2022/04/06 17:23:05;;;;;;;21.50;8.67;;;;;;;12.48;68.26;98795.42;3603185;79;99019;-79
2022/04/06 17:28:07;;;;;;;17.07;6.90;;;;;;;12.42;68.35;98799.89;3590370;78;99531;-79
2022/04/06 17:33:09;;;;;;;16.57;7.58;;;;;;;12.35;68.71;98799.27;3621484;80;98898;-79
2022/04/06 17:38:11;;;;;;;15.80;7.83;;;;;;;12.27;68.96;98802.02;3595515;80;98422;-79
2022/04/06 17:43:13;;;;;;;18.30;8.15;;;;;;;12.18;69.24;98800.44;3611926;79;98411;-78
2022/04/06 17:48:14;;;;;;;13.32;7.05;;;;;;;12.09;69.54;98799.63;3593851;79;98799;-78
2022/04/06 17:53:16;;;;;;;15.72;8.40;;;;;;;12.00;69.99;98796.66;3576119;79;98693;-78
2022/04/06 17:58:17;;;;;;;18.97;9.87;;;;;;;11.87;70.27;98800.48;3608643;80;98463;-79
2022/04/06 18:03:19;;;;;;;15.68;9.28;;;;;;;11.77;70.58;98801.50;3593952;79;99151;-79
2022/04/06 18:08:20;;;;;;;16.85;9.68;;;;;;;11.64;70.92;98802.72;3563323;78;98930;-79
2022/04/06 18:13:40;;;;;;;16.40;9.18;;;;;;;11.55;71.26;98814.86;3645643;79;98792;-79
2022/04/06 18:18:43;;;;;;;40.28;18.02;;;;;;;11.44;71.50;98809.38;3667271;79;98892;-79
2022/04/06 18:23:48;;;;;;;27.80;13.80;;;;;;;11.26;72.01;98813.82;3692584;78;99164;-79
2022/04/06 18:28:50;;;;;;;29.53;12.60;;;;;;;11.16;72.33;98814.78;3692392;78;98884;-79
2022/04/06 18:33:54;;;;;;;55.75;24.00;;;;;;;11.04;72.80;98817.34;3668977;78;99778;-78
2022/04/06 18:38:57;;;;;;;70.67;29.15;;;;;;;10.90;73.20;98812.84;3540944;80;99178;-79
2022/04/06 18:44:00;;;;;;;42.48;22.45;;;;;;;10.82;73.61;98825.17;3544490;81;98975;-80
2022/04/06 18:49:04;;;;;;;40.78;20.95;;;;;;;10.77;73.92;98822.11;3528038;81;99074;-78
2022/04/06 18:54:06;;;;;;;20.80;11.97;;;;;;;10.74;74.05;98818.83;3519991;81;98971;-79
2022/04/06 18:59:09;;;;;;;21.33;10.85;;;;;;;10.72;74.37;98806.86;3544489;81;99071;-79
2022/04/06 19:04:11;;;;;;;19.02;9.55;;;;;;;10.69;74.42;98809.66;3516257;81;98991;-80
2022/04/06 19:09:16;;;;;;;21.23;8.80;;;;;;;10.67;74.60;98803.20;3638945;79;98622;-79
2022/04/06 19:14:18;;;;;;;17.57;8.80;;;;;;;10.64;74.63;98799.13;3629249;79;98910;-79
2022/04/06 19:19:27;;;;;;;17.17;9.75;;;;;;;10.63;74.84;98798.95;3635004;79;98621;-79
2022/04/06 19:24:32;;;;;;;21.40;11.08;;;;;;;10.60;74.91;98798.39;3640853;79;98826;-78
2022/04/06 19:29:36;;;;;;;21.57;10.32;;;;;;;10.59;75.20;98796.84;3665355;78;98916;-78
2022/04/06 19:34:38;;;;;;;22.27;12.23;;;;;;;10.57;75.26;98790.99;3644855;79;99020;-79
2022/04/06 19:39:46;;;;;;;19.17;10.83;;;;;;;10.56;75.21;98781.16;3547643;80;98667;-78
2022/04/06 19:44:47;;;;;;;17.90;10.68;;;;;;;10.57;75.22;98777.23;3564538;80;98919;-77
2022/04/06 19:49:50;;;;;;;21.85;10.38;;;;;;;10.58;75.17;98780.92;3539709;81;99061;-76
2022/04/06 19:54:55;;;;;;;19.85;10.55;;;;;;;10.55;75.49;98780.40;3562394;81;99005;-77
2022/04/06 19:59:57;;;;;;;30.77;15.73;;;;;;;10.46;75.63;98782.13;3563142;81;99069;-76
2022/04/06 20:04:58;;;;;;;34.60;16.90;;;;;;;10.35;75.67;98776.00;3543726;81;99016;-77
2022/04/06 20:10:03;;;;;;;22.60;12.20;;;;;;;10.34;75.77;98770.30;3510258;82;98894;-78
2022/04/06 20:15:05;;;;;;;18.50;9.08;;;;;;;10.28;75.74;98764.50;3446811;83;99072;-79
2022/04/06 20:20:08;;;;;;;22.82;11.60;;;;;;;10.24;75.79;98758.27;3393012;81;98684;-78
2022/04/06 20:25:11;;;;;;;25.88;14.28;;;;;;;10.20;75.99;98754.78;3461603;83;98704;-79
2022/04/06 20:30:13;;;;;;;31.47;16.13;;;;;;;10.17;76.30;98743.84;3444515;82;99357;-79
2022/04/06 20:35:15;;;;;;;31.48;16.82;;;;;;;10.12;76.77;98748.42;3466981;82;98900;-79
2022/04/06 20:40:17;;;;;;;28.27;16.50;;;;;;;10.07;76.91;98742.80;3464202;82;99245;-78
2022/04/06 20:45:18;;;;;;;29.82;16.73;;;;;;;10.04;77.21;98740.11;3552393;79;99066;-78
2022/04/06 20:50:20;;;;;;;31.75;16.87;;;;;;;9.98;77.59;98734.86;3561069;80;99126;-78
2022/04/06 20:55:21;;;;;;;26.35;14.68;;;;;;;9.93;77.98;98727.08;3506833;79;98729;-79
2022/04/06 21:00:25;;;;;;;26.15;15.15;;;;;;;9.86;78.41;98728.55;3560168;79;98437;-79
2022/04/06 21:05:27;;;;;;;28.07;16.70;;;;;;;9.82;78.38;98725.83;3546824;79;98560;-81
2022/04/06 21:10:27;;;;;;;29.50;15.20;;;;;;;9.77;78.44;98715.30;3560650;79;98798;-81
2022/04/06 21:15:29;;;;;;;31.48;16.23;;;;;;;9.72;78.85;98712.25;3655141;79;98894;-81
2022/04/06 21:20:32;;;;;;;29.10;15.67;;;;;;;9.68;79.13;98711.50;3597775;80;98924;-81
2022/04/06 21:25:33;;;;;;;33.88;17.65;;;;;;;9.62;79.39;98711.78;3562113;80;99084;-81
2022/04/06 21:30:34;;;;;;;29.40;16.37;;;;;;;9.58;79.71;98710.45;3530855;81;98866;-81
2022/04/06 21:35:35;;;;;;;35.05;17.85;;;;;;;9.54;79.80;98705.59;3496184;82;99233;-82
2022/04/06 21:40:36;;;;;;;32.83;18.57;;;;;;;9.50;79.92;98699.39;3541408;81;98778;-81
2022/04/06 21:45:37;;;;;;;33.60;18.57;;;;;;;9.46;80.13;98697.28;3508696;82;98869;-81
2022/04/06 21:50:38;;;;;;;34.03;16.17;;;;;;;9.42;80.40;98696.53;3539882;82;98895;-78
2022/04/06 21:55:39;;;;;;;35.90;18.07;;;;;;;9.36;80.36;98691.31;3595283;81;98877;-80
2022/04/06 22:00:40;;;;;;;30.40;16.47;;;;;;;9.32;80.56;98675.47;3609691;81;98864;-80
2022/04/06 22:05:41;;;;;;;33.90;14.53;;;;;;;9.29;80.44;98676.89;3563059;81;98833;-80
2022/04/06 22:10:42;;;;;;;30.60;14.20;;;;;;;9.24;80.45;98671.27;3601460;81;98731;-81
2022/04/06 22:15:43;;;;;;;29.48;15.65;;;;;;;9.19;80.49;98670.93;3588437;81;99235;-79
2022/04/06 22:20:45;;;;;;;26.15;13.45;;;;;;;9.15;80.43;98666.86;3591474;81;98649;-80
2022/04/06 22:25:46;;;;;;;29.72;13.70;;;;;;;9.10;80.46;98668.67;3601184;81;98587;-79
2022/04/06 22:30:47;;;;;;;33.43;15.10;;;;;;;9.06;80.58;98655.58;3595263;79;98684;-79
2022/04/06 22:35:48;;;;;;;26.50;13.25;;;;;;;9.02;80.77;98668.58;3602952;80;98698;-81
2022/04/06 22:40:49;;;;;;;24.70;13.27;;;;;;;8.98;80.83;98656.86;3592813;80;98906;-81
2022/04/06 22:45:50;;;;;;;25.57;13.20;;;;;;;8.94;80.96;98649.87;3578626;81;98844;-82
2022/04/06 22:50:51;;;;;;;23.17;12.33;;;;;;;8.94;81.16;98645.14;3595577;80;98770;-83
2022/04/06 22:55:52;;;;;;;26.80;12.53;;;;;;;8.95;81.19;98636.33;3613107;81;99144;-81
2022/04/06 23:00:53;;;;;;;24.10;11.50;;;;;;;8.93;81.16;98627.71;3590317;81;98808;-82
2022/04/06 23:05:54;;;;;;;23.40;11.47;;;;;;;8.95;81.23;98628.09;3587750;81;98705;-81
2022/04/06 23:10:55;;;;;;;22.83;11.03;;;;;;;8.96;81.14;98619.47;3598139;80;98917;-82
2022/04/06 23:15:56;;;;;;;22.67;9.68;;;;;;;8.98;81.16;98616.29;3559484;81;99487;-80
2022/04/06 23:20:57;;;;;;;18.92;10.08;;;;;;;9.02;81.15;98609.59;3572029;81;98547;-82
2022/04/06 23:25:58;;;;;;;20.73;10.00;;;;;;;9.07;80.91;98606.98;3475247;82;98856;-83
2022/04/06 23:30:59;;;;;;;20.80;9.43;;;;;;;9.11;80.88;98609.86;3538902;81;98669;-81
2022/04/06 23:36:02;;;;;;;18.67;10.23;;;;;;;9.16;80.68;98594.92;3572293;81;98450;-82
2022/04/06 23:41:03;;;;;;;19.43;9.63;;;;;;;9.18;80.57;98596.66;3566280;80;107994;-82
2022/04/06 23:46:04;;;;;;;24.32;10.60;;;;;;;9.20;80.50;98589.56;3528515;82;98742;-82
2022/04/06 23:51:05;;;;;;;22.02;9.53;;;;;;;9.23;80.31;98582.47;3537157;82;98748;-82